Van Kinsbergen — PAKB — position and weather

sailwx.info

Track history (hours):
 
Tides and Currents Weather Stations Pressure Air Temp Water Temp Dewpoint Dewpoint Depression Visibility Wind Speed Wind Dir Waves Ship Positions

Van Kinsbergen

Last reported at 2015-Mar-05 09:33 UTC. Time now 2015-Mar-05 12:00 UTC.
Position N 53°19' E 004°59'.

Length 40 m; draft 3.1 m.

MMSI: 244736000.

Date/timePositionNaut miles runAvg speedWind from/ knotsBaromVisibWave heightAir tempDewpointWater temp
2015-Mar-05 09:33N 53°19' E 004°59'9 9.5
2015-Mar-05 08:34N 53°18' E 005°14'4 3.5
2015-Mar-05 07:31N 53°22' E 005°13'0 0.0
2015-Mar-05 06:31N 53°22' E 005°13'0 0.0
2015-Mar-05 05:31N 53°22' E 005°13'0 0.0
2015-Mar-05 04:31N 53°22' E 005°13'0 0.0
2015-Mar-05 03:31N 53°22' E 005°13'0 0.0
2015-Mar-05 02:28N 53°22' E 005°13'0 0.0
2015-Mar-05 01:31N 53°22' E 005°13'0 0.0
2015-Mar-05 00:31N 53°22' E 005°13'0 0.0
2015-Mar-04 23:31N 53°22' E 005°13'0 0.0
2015-Mar-04 22:31N 53°22' E 005°13'0 0.0
2015-Mar-04 21:31N 53°22' E 005°13'0 0.0
2015-Mar-04 20:33N 53°22' E 005°13'5 4.6
2015-Mar-04 19:34N 53°17' E 005°11'8 7.8
2015-Mar-04 18:33N 53°11' E 005°19'5 5.1
2015-Mar-04 17:33N 53°07' E 005°22'8 8.4
2015-Mar-04 16:33N 53°03' E 005°10'9 8.7
2015-Mar-04 15:32N 53°03' E 004°56'7 7.1
2015-Mar-04 14:33N 52°58' E 004°47'1 0.6
2015-Mar-04 13:26N 52°59' E 004°48'3 2.9
2015-Mar-04 12:29N 52°58' E 004°44'2 2.1
2015-Mar-04 11:32N 52°58' E 004°47'0 0.0
2015-Mar-04 10:29N 52°58' E 004°47'0 0.0
2015-Mar-04 09:29N 52°58' E 004°47'0 0.0
2015-Mar-04 08:29N 52°58' E 004°47'0 0.0
2015-Mar-04 07:29N 52°58' E 004°47'0 0.0
2015-Mar-04 06:32N 52°58' E 004°47'0 0.0
2015-Mar-04 05:32N 52°58' E 004°47'0 0.0
2015-Mar-04 04:29N 52°58' E 004°47'0 0.0
2015-Mar-04 03:29N 52°58' E 004°47'0 0.0
2015-Mar-04 02:29N 52°58' E 004°47'0 0.0
2015-Mar-04 01:29N 52°58' E 004°47'0 0.0
2015-Mar-04 00:29N 52°58' E 004°47'0 0.0
2015-Mar-03 23:32N 52°58' E 004°47'0 0.0
2015-Mar-03 22:29N 52°58' E 004°47'0 0.0
2015-Mar-03 21:26N 52°58' E 004°47'0 0.0
2015-Mar-03 20:29N 52°58' E 004°47'0 0.0
2015-Mar-03 19:32N 52°58' E 004°47'0 0.0
2015-Mar-03 18:32N 52°58' E 004°47'0 0.0
2015-Mar-03 17:32N 52°58' E 004°47'0 0.0
2015-Mar-03 16:32N 52°58' E 004°47'0 0.0
2015-Mar-03 15:32N 52°58' E 004°47'0 0.0
2015-Mar-03 14:32N 52°58' E 004°47'1 1.1
2015-Mar-03 13:33N 52°59' E 004°48'1 1.0
2015-Mar-03 12:33N 52°58' E 004°47'8 8.0
2015-Mar-03 11:33N 53°04' E 004°56'1010.3
2015-Mar-03 10:33N 53°03' E 005°13'8 8.3
2015-Mar-03 09:33N 53°09' E 005°23'7 7.3
2015-Mar-03 08:33N 53°14' E 005°14'5 5.4
2015-Mar-03 07:34N 53°19' E 005°16'3 2.8
2015-Mar-03 06:33N 53°22' E 005°13'0 0.0
2015-Mar-03 05:30N 53°22' E 005°13'0 0.0
2015-Mar-03 04:33N 53°22' E 005°13'0 0.0
2015-Mar-03 03:33N 53°22' E 005°13'0 0.0
2015-Mar-03 02:33N 53°22' E 005°13'0 0.0
2015-Mar-03 01:33N 53°22' E 005°13'0 0.0
2015-Mar-03 00:33N 53°22' E 005°13'0 0.0
2015-Mar-02 23:33N 53°22' E 005°13'0 0.0
2015-Mar-02 22:33N 53°22' E 005°13'0 0.0
2015-Mar-02 21:33N 53°22' E 005°13'0 0.0
2015-Mar-02 20:33N 53°22' E 005°13'0 0.0
2015-Mar-02 19:30N 53°22' E 005°13'0 0.0
2015-Mar-02 18:33N 53°22' E 005°13'2 2.1
2015-Mar-02 17:34N 53°20' E 005°14'6 5.8
2015-Mar-02 16:33N 53°14' E 005°15'7 6.9
2015-Mar-02 15:34N 53°09' E 005°23'6 5.5
2015-Mar-02 14:33N 53°05' E 005°17'10 9.7
2015-Mar-02 13:32N 53°03' E 005°01'9 8.8
2015-Mar-02 12:33N 52°59' E 004°48'1 0.9
2015-Mar-02 11:33N 52°59' E 004°48'1 1.2
2015-Mar-02 10:31N 52°58' E 004°47'0 0.0
2015-Mar-02 09:31N 52°58' E 004°47'0 0.0
2015-Mar-02 08:22N 52°58' E 004°47'0 0.0
2015-Mar-02 07:31N 52°58' E 004°47'0 0.0
2015-Mar-02 06:31N 52°58' E 004°47'0 0.0
2015-Mar-02 05:31N 52°58' E 004°47'0 0.0
2015-Mar-02 04:28N 52°58' E 004°47'0 0.0
2015-Mar-02 03:31N 52°58' E 004°47'0 0.0
2015-Mar-02 02:31N 52°58' E 004°47'0 0.0
2015-Mar-02 01:19N 52°58' E 004°47'0 0.0
2015-Mar-02 00:28N 52°58' E 004°47'0 0.0
2015-Mar-01 23:31N 52°58' E 004°47'0 0.0
2015-Mar-01 22:31N 52°58' E 004°47'0 0.0
2015-Mar-01 21:31N 52°58' E 004°47'0 0.0
2015-Mar-01 20:31N 52°58' E 004°47'0 0.0
2015-Mar-01 19:31N 52°58' E 004°47'0 0.0
2015-Mar-01 18:28N 52°58' E 004°47'0 0.0
2015-Mar-01 17:31N 52°58' E 004°47'0 0.0
2015-Mar-01 16:31N 52°58' E 004°47'0 0.0
2015-Mar-01 15:25N 52°58' E 004°47'0 0.0
2015-Mar-01 14:31N 52°58' E 004°47'0 0.0
2015-Mar-01 13:31N 52°58' E 004°47'0 0.0
2015-Mar-01 12:31N 52°58' E 004°47'0 0.0
2015-Mar-01 11:31N 52°58' E 004°47'0 0.0
2015-Mar-01 10:31N 52°58' E 004°47'0 0.0
2015-Mar-01 09:28N 52°58' E 004°47'0 0.0
2015-Mar-01 08:31N 52°58' E 004°47'0 0.0
2015-Mar-01 07:31N 52°58' E 004°47'0 0.0
2015-Mar-01 06:31N 52°58' E 004°47'0 0.0
2015-Mar-01 05:31N 52°58' E 004°47'0 0.0
2015-Mar-01 04:28N 52°58' E 004°47'0 0.0
2015-Mar-01 03:31N 52°58' E 004°47'0 0.0
2015-Mar-01 02:28N 52°58' E 004°47'0 0.0
2015-Mar-01 01:25N 52°58' E 004°47'0 0.0
2015-Mar-01 00:28N 52°58' E 004°47'0 0.0
2015-Feb-28 23:28N 52°58' E 004°47'0 0.0
2015-Feb-28 22:28N 52°58' E 004°47'0 0.0
2015-Feb-28 21:31N 52°58' E 004°47'0 0.0
2015-Feb-28 20:31N 52°58' E 004°47'0 0.0
2015-Feb-28 19:31N 52°58' E 004°47'0 0.0
2015-Feb-28 18:25N 52°58' E 004°47'0 0.0
2015-Feb-28 17:25N 52°58' E 004°47'0 0.0
2015-Feb-28 16:31N 52°58' E 004°47'0 0.0
2015-Feb-28 15:31N 52°58' E 004°47'0 0.0
2015-Feb-28 14:31N 52°58' E 004°47'0 0.0
2015-Feb-28 13:28N 52°58' E 004°47'0 0.0
2015-Feb-28 12:31N 52°58' E 004°47'0 0.0
2015-Feb-28 09:28N 52°58' E 004°47'0 0.0
2015-Feb-28 08:25N 52°58' E 004°47'0 0.0
2015-Feb-28 07:31N 52°58' E 004°47'0 0.0
2015-Feb-28 06:31N 52°58' E 004°47'0 0.0
2015-Feb-28 05:31N 52°58' E 004°47'0 0.0
2015-Feb-28 04:31N 52°58' E 004°47'0 0.0
2015-Feb-28 03:28N 52°58' E 004°47'0 0.0
2015-Feb-28 02:31N 52°58' E 004°47'0 0.0
2015-Feb-28 01:16N 52°58' E 004°47'0 0.0
2015-Feb-28 00:31N 52°58' E 004°47'0 0.0
2015-Feb-27 23:31N 52°58' E 004°47'0 0.0
2015-Feb-27 22:31N 52°58' E 004°47'0 0.0
2015-Feb-27 21:31N 52°58' E 004°47'0 0.0
2015-Feb-27 20:31N 52°58' E 004°47'0 0.0
2015-Feb-27 19:31N 52°58' E 004°47'0 0.0
2015-Feb-27 18:28N 52°58' E 004°47'0 0.0
2015-Feb-27 17:28N 52°58' E 004°47'0 0.0
2015-Feb-27 16:31N 52°58' E 004°47'0 0.0
2015-Feb-27 15:28N 52°58' E 004°47'0 0.0
2015-Feb-27 14:31N 52°58' E 004°47'0 0.0
2015-Feb-27 13:31N 52°58' E 004°47'0 0.0
2015-Feb-27 12:28N 52°58' E 004°47'0 0.0
2015-Feb-27 11:31N 52°58' E 004°47'0 0.0
2015-Feb-27 10:31N 52°58' E 004°47'0 0.0
2015-Feb-27 09:31N 52°58' E 004°47'0 0.0
2015-Feb-27 08:28N 52°58' E 004°47'0 0.0
2015-Feb-27 07:31N 52°58' E 004°47'0 0.0
2015-Feb-27 06:31N 52°58' E 004°47'0 0.0
2015-Feb-27 05:31N 52°58' E 004°47'0 0.0
2015-Feb-27 04:28N 52°58' E 004°47'0 0.0
2015-Feb-27 03:04N 52°58' E 004°47'0 0.0
2015-Feb-27 02:31N 52°58' E 004°47'0 0.0
2015-Feb-27 01:31N 52°58' E 004°47'0 0.0
2015-Feb-27 00:31N 52°58' E 004°47'0 0.0
2015-Feb-26 23:31N 52°58' E 004°47'0 0.0
2015-Feb-26 22:31N 52°58' E 004°47'0 0.0
2015-Feb-26 21:25N 52°58' E 004°47'0 0.0
2015-Feb-26 20:31N 52°58' E 004°47'0 0.0
2015-Feb-26 19:31N 52°58' E 004°47'0 0.0
2015-Feb-26 18:31N 52°58' E 004°47'0 0.0
2015-Feb-26 17:31N 52°58' E 004°47'0 0.0
2015-Feb-26 16:31N 52°58' E 004°47'0 0.0
2015-Feb-26 15:28N 52°58' E 004°47'0 0.0
2015-Feb-26 14:31N 52°58' E 004°47'0 0.0
2015-Feb-26 13:31N 52°58' E 004°47'0 0.0
2015-Feb-26 12:28N 52°58' E 004°47'0 0.0
2015-Feb-26 11:31N 52°58' E 004°47'0 0.0
2015-Feb-26 10:31N 52°58' E 004°47'0 0.0
2015-Feb-26 09:22N 52°58' E 004°47'0 0.0
2015-Feb-26 08:28N 52°58' E 004°47'0 0.0
2015-Feb-26 07:31N 52°58' E 004°47'0 0.0
2015-Feb-26 06:22N 52°58' E 004°47'0 0.0
2015-Feb-26 05:28N 52°58' E 004°47'0 0.0
2015-Feb-26 04:25N 52°58' E 004°47'0 0.0
2015-Feb-26 03:28N 52°58' E 004°47'0 0.0
2015-Feb-26 02:28N 52°58' E 004°47'0 0.0
2015-Feb-26 01:31N 52°58' E 004°47'0 0.0
2015-Feb-26 00:22N 52°58' E 004°47'0 0.0
2015-Feb-25 23:31N 52°58' E 004°47'0 0.0
2015-Feb-25 22:25N 52°58' E 004°47'0 0.0
2015-Feb-25 21:31N 52°58' E 004°47'0 0.0
2015-Feb-25 20:25N 52°58' E 004°47'0 0.0
2015-Feb-25 19:22N 52°58' E 004°47'0 0.0
2015-Feb-25 18:13N 52°58' E 004°47'0 0.0
2015-Feb-25 17:31N 52°58' E 004°47'0 0.0
2015-Feb-25 16:25N 52°58' E 004°47'0 0.0
2015-Feb-25 15:31N 52°58' E 004°47'0 0.0
2015-Feb-25 14:28N 52°58' E 004°47'0 0.0
2015-Feb-25 13:25N 52°58' E 004°47'0 0.0
2015-Feb-25 12:31N 52°58' E 004°47'0 0.0
2015-Feb-25 11:28N 52°58' E 004°47'0 0.0
2015-Feb-25 10:31N 52°58' E 004°47'0 0.0
2015-Feb-25 09:31N 52°58' E 004°47'0 0.0
2015-Feb-25 08:31N 52°58' E 004°47'0 0.0
2015-Feb-25 07:31N 52°58' E 004°47'0 0.0
2015-Feb-25 06:31N 52°58' E 004°47'0 0.0
2015-Feb-25 05:31N 52°58' E 004°47'0 0.0
2015-Feb-25 04:28N 52°58' E 004°47'0 0.0
2015-Feb-25 03:31N 52°58' E 004°47'0 0.0
2015-Feb-25 02:28N 52°58' E 004°47'0 0.0
2015-Feb-25 01:25N 52°58' E 004°47'0 0.0
2015-Feb-25 00:22N 52°58' E 004°47'0 0.0
2015-Feb-24 23:31N 52°58' E 004°47'0 0.0
2015-Feb-24 22:28N 52°58' E 004°47'0 0.0
2015-Feb-24 21:28N 52°58' E 004°47'0 0.0
2015-Feb-24 20:28N 52°58' E 004°47'0 0.0
2015-Feb-24 19:25N 52°58' E 004°47'0 0.0
2015-Feb-24 18:31N 52°58' E 004°47'0 0.0
2015-Feb-24 17:31N 52°58' E 004°47'0 0.0
2015-Feb-24 16:31N 52°58' E 004°47'0 0.0
2015-Feb-24 15:31N 52°58' E 004°47'0 0.0
2015-Feb-24 14:31N 52°58' E 004°47'0 0.0
2015-Feb-24 13:31N 52°58' E 004°47'0 0.0
2015-Feb-24 12:31N 52°58' E 004°47'0 0.0
2015-Feb-24 11:22N 52°58' E 004°47'0 0.0
2015-Feb-24 10:28N 52°58' E 004°47'0 0.0
2015-Feb-24 09:31N 52°58' E 004°47'0 0.0
2015-Feb-24 08:31N 52°58' E 004°47'0 0.0
2015-Feb-24 07:31N 52°58' E 004°47'0 0.0
2015-Feb-24 06:31N 52°58' E 004°47'0 0.0
2015-Feb-24 05:31N 52°58' E 004°47'0 0.0
2015-Feb-24 04:31N 52°58' E 004°47'0 0.0
2015-Feb-24 03:31N 52°58' E 004°47'0 0.0
2015-Feb-24 02:31N 52°58' E 004°47'0 0.0
2015-Feb-24 01:16N 52°58' E 004°47'0 0.0
2015-Feb-24 00:28N 52°58' E 004°47'0 0.0
2015-Feb-23 23:31N 52°58' E 004°47'0 0.0
2015-Feb-23 22:31N 52°58' E 004°47'0 0.0
2015-Feb-23 21:31N 52°58' E 004°47'0 0.0
2015-Feb-23 20:28N 52°58' E 004°47'0 0.0
2015-Feb-23 19:31N 52°58' E 004°47'0 0.0
2015-Feb-23 18:28N 52°58' E 004°47'0 0.0
2015-Feb-23 17:25N 52°58' E 004°47'0 0.0
2015-Feb-23 16:25N 52°58' E 004°47'0 0.0
2015-Feb-23 15:28N 52°58' E 004°47'0 0.0
2015-Feb-23 14:31N 52°58' E 004°47'0 0.0
2015-Feb-23 13:31N 52°58' E 004°47'0 0.0
2015-Feb-23 12:22N 52°58' E 004°47'0 0.0
2015-Feb-23 11:28N 52°58' E 004°47'0 0.0
2015-Feb-23 10:31N 52°58' E 004°47'  
Track history (hours):
 
Tides and Currents Weather Stations Pressure Air Temp Water Temp Dewpoint Dewpoint Depression Visibility Wind Speed Wind Dir Waves Ship Positions

Van Kinsbergen

Last reported at 2015-Mar-05 09:33 UTC. Time now 2015-Mar-05 12:00 UTC.
Position N 53°19' E 004°59'.

Length 40 m; draft 3.1 m.

MMSI: 244736000.

Date/timePositionNaut miles runAvg speedWind from/ knotsBaromVisibWave heightAir tempDewpointWater temp
2015-Mar-05 09:33N 53°19' E 004°59'9 9.5
2015-Mar-05 08:34N 53°18' E 005°14'4 3.5
2015-Mar-05 07:31N 53°22' E 005°13'0 0.0
2015-Mar-05 06:31N 53°22' E 005°13'0 0.0
2015-Mar-05 05:31N 53°22' E 005°13'0 0.0
2015-Mar-05 04:31N 53°22' E 005°13'0 0.0
2015-Mar-05 03:31N 53°22' E 005°13'0 0.0
2015-Mar-05 02:28N 53°22' E 005°13'0 0.0
2015-Mar-05 01:31N 53°22' E 005°13'0 0.0
2015-Mar-05 00:31N 53°22' E 005°13'0 0.0
2015-Mar-04 23:31N 53°22' E 005°13'0 0.0
2015-Mar-04 22:31N 53°22' E 005°13'0 0.0
2015-Mar-04 21:31N 53°22' E 005°13'0 0.0
2015-Mar-04 20:33N 53°22' E 005°13'5 4.6
2015-Mar-04 19:34N 53°17' E 005°11'8 7.8
2015-Mar-04 18:33N 53°11' E 005°19'5 5.1
2015-Mar-04 17:33N 53°07' E 005°22'8 8.4
2015-Mar-04 16:33N 53°03' E 005°10'9 8.7
2015-Mar-04 15:32N 53°03' E 004°56'7 7.1
2015-Mar-04 14:33N 52°58' E 004°47'1 0.6
2015-Mar-04 13:26N 52°59' E 004°48'3 2.9
2015-Mar-04 12:29N 52°58' E 004°44'2 2.1
2015-Mar-04 11:32N 52°58' E 004°47'0 0.0
2015-Mar-04 10:29N 52°58' E 004°47'0 0.0
2015-Mar-04 09:29N 52°58' E 004°47'0 0.0
2015-Mar-04 08:29N 52°58' E 004°47'0 0.0
2015-Mar-04 07:29N 52°58' E 004°47'0 0.0
2015-Mar-04 06:32N 52°58' E 004°47'0 0.0
2015-Mar-04 05:32N 52°58' E 004°47'0 0.0
2015-Mar-04 04:29N 52°58' E 004°47'0 0.0
2015-Mar-04 03:29N 52°58' E 004°47'0 0.0
2015-Mar-04 02:29N 52°58' E 004°47'0 0.0
2015-Mar-04 01:29N 52°58' E 004°47'0 0.0
2015-Mar-04 00:29N 52°58' E 004°47'0 0.0
2015-Mar-03 23:32N 52°58' E 004°47'0 0.0
2015-Mar-03 22:29N 52°58' E 004°47'0 0.0
2015-Mar-03 21:26N 52°58' E 004°47'0 0.0
2015-Mar-03 20:29N 52°58' E 004°47'0 0.0
2015-Mar-03 19:32N 52°58' E 004°47'0 0.0
2015-Mar-03 18:32N 52°58' E 004°47'0 0.0
2015-Mar-03 17:32N 52°58' E 004°47'0 0.0
2015-Mar-03 16:32N 52°58' E 004°47'0 0.0
2015-Mar-03 15:32N 52°58' E 004°47'0 0.0
2015-Mar-03 14:32N 52°58' E 004°47'1 1.1
2015-Mar-03 13:33N 52°59' E 004°48'1 1.0
2015-Mar-03 12:33N 52°58' E 004°47'8 8.0
2015-Mar-03 11:33N 53°04' E 004°56'1010.3
2015-Mar-03 10:33N 53°03' E 005°13'8 8.3
2015-Mar-03 09:33N 53°09' E 005°23'7 7.3
2015-Mar-03 08:33N 53°14' E 005°14'5 5.4
2015-Mar-03 07:34N 53°19' E 005°16'3 2.8
2015-Mar-03 06:33N 53°22' E 005°13'0 0.0
2015-Mar-03 05:30N 53°22' E 005°13'0 0.0
2015-Mar-03 04:33N 53°22' E 005°13'0 0.0
2015-Mar-03 03:33N 53°22' E 005°13'0 0.0
2015-Mar-03 02:33N 53°22' E 005°13'0 0.0
2015-Mar-03 01:33N 53°22' E 005°13'0 0.0
2015-Mar-03 00:33N 53°22' E 005°13'0 0.0
2015-Mar-02 23:33N 53°22' E 005°13'0 0.0
2015-Mar-02 22:33N 53°22' E 005°13'0 0.0
2015-Mar-02 21:33N 53°22' E 005°13'0 0.0
2015-Mar-02 20:33N 53°22' E 005°13'0 0.0
2015-Mar-02 19:30N 53°22' E 005°13'0 0.0
2015-Mar-02 18:33N 53°22' E 005°13'2 2.1
2015-Mar-02 17:34N 53°20' E 005°14'6 5.8
2015-Mar-02 16:33N 53°14' E 005°15'7 6.9
2015-Mar-02 15:34N 53°09' E 005°23'6 5.5
2015-Mar-02 14:33N 53°05' E 005°17'10 9.7
2015-Mar-02 13:32N 53°03' E 005°01'9 8.8
2015-Mar-02 12:33N 52°59' E 004°48'1 0.9
2015-Mar-02 11:33N 52°59' E 004°48'1 1.2
2015-Mar-02 10:31N 52°58' E 004°47'0 0.0
2015-Mar-02 09:31N 52°58' E 004°47'0 0.0
2015-Mar-02 08:22N 52°58' E 004°47'0 0.0
2015-Mar-02 07:31N 52°58' E 004°47'0 0.0
2015-Mar-02 06:31N 52°58' E 004°47'0 0.0
2015-Mar-02 05:31N 52°58' E 004°47'0 0.0
2015-Mar-02 04:28N 52°58' E 004°47'0 0.0
2015-Mar-02 03:31N 52°58' E 004°47'0 0.0
2015-Mar-02 02:31N 52°58' E 004°47'0 0.0
2015-Mar-02 01:19N 52°58' E 004°47'0 0.0
2015-Mar-02 00:28N 52°58' E 004°47'0 0.0
2015-Mar-01 23:31N 52°58' E 004°47'0 0.0
2015-Mar-01 22:31N 52°58' E 004°47'0 0.0
2015-Mar-01 21:31N 52°58' E 004°47'0 0.0
2015-Mar-01 20:31N 52°58' E 004°47'0 0.0
2015-Mar-01 19:31N 52°58' E 004°47'0 0.0
2015-Mar-01 18:28N 52°58' E 004°47'0 0.0
2015-Mar-01 17:31N 52°58' E 004°47'0 0.0
2015-Mar-01 16:31N 52°58' E 004°47'0 0.0
2015-Mar-01 15:25N 52°58' E 004°47'0 0.0
2015-Mar-01 14:31N 52°58' E 004°47'0 0.0
2015-Mar-01 13:31N 52°58' E 004°47'0 0.0
2015-Mar-01 12:31N 52°58' E 004°47'0 0.0
2015-Mar-01 11:31N 52°58' E 004°47'0 0.0
2015-Mar-01 10:31N 52°58' E 004°47'0 0.0
2015-Mar-01 09:28N 52°58' E 004°47'0 0.0
2015-Mar-01 08:31N 52°58' E 004°47'0 0.0
2015-Mar-01 07:31N 52°58' E 004°47'0 0.0
2015-Mar-01 06:31N 52°58' E 004°47'0 0.0
2015-Mar-01 05:31N 52°58' E 004°47'0 0.0
2015-Mar-01 04:28N 52°58' E 004°47'0 0.0
2015-Mar-01 03:31N 52°58' E 004°47'0 0.0
2015-Mar-01 02:28N 52°58' E 004°47'0 0.0
2015-Mar-01 01:25N 52°58' E 004°47'0 0.0
2015-Mar-01 00:28N 52°58' E 004°47'0 0.0
2015-Feb-28 23:28N 52°58' E 004°47'0 0.0
2015-Feb-28 22:28N 52°58' E 004°47'0 0.0
2015-Feb-28 21:31N 52°58' E 004°47'0 0.0
2015-Feb-28 20:31N 52°58' E 004°47'0 0.0
2015-Feb-28 19:31N 52°58' E 004°47'0 0.0
2015-Feb-28 18:25N 52°58' E 004°47'0 0.0
2015-Feb-28 17:25N 52°58' E 004°47'0 0.0
2015-Feb-28 16:31N 52°58' E 004°47'0 0.0
2015-Feb-28 15:31N 52°58' E 004°47'0 0.0
2015-Feb-28 14:31N 52°58' E 004°47'0 0.0
2015-Feb-28 13:28N 52°58' E 004°47'0 0.0
2015-Feb-28 12:31N 52°58' E 004°47'0 0.0
2015-Feb-28 09:28N 52°58' E 004°47'0 0.0
2015-Feb-28 08:25N 52°58' E 004°47'0 0.0
2015-Feb-28 07:31N 52°58' E 004°47'0 0.0
2015-Feb-28 06:31N 52°58' E 004°47'0 0.0
2015-Feb-28 05:31N 52°58' E 004°47'0 0.0
2015-Feb-28 04:31N 52°58' E 004°47'0 0.0
2015-Feb-28 03:28N 52°58' E 004°47'0 0.0
2015-Feb-28 02:31N 52°58' E 004°47'0 0.0
2015-Feb-28 01:16N 52°58' E 004°47'0 0.0
2015-Feb-28 00:31N 52°58' E 004°47'0 0.0
2015-Feb-27 23:31N 52°58' E 004°47'0 0.0
2015-Feb-27 22:31N 52°58' E 004°47'0 0.0
2015-Feb-27 21:31N 52°58' E 004°47'0 0.0
2015-Feb-27 20:31N 52°58' E 004°47'0 0.0
2015-Feb-27 19:31N 52°58' E 004°47'0 0.0
2015-Feb-27 18:28N 52°58' E 004°47'0 0.0
2015-Feb-27 17:28N 52°58' E 004°47'0 0.0
2015-Feb-27 16:31N 52°58' E 004°47'0 0.0
2015-Feb-27 15:28N 52°58' E 004°47'0 0.0
2015-Feb-27 14:31N 52°58' E 004°47'0 0.0
2015-Feb-27 13:31N 52°58' E 004°47'0 0.0
2015-Feb-27 12:28N 52°58' E 004°47'0 0.0
2015-Feb-27 11:31N 52°58' E 004°47'0 0.0
2015-Feb-27 10:31N 52°58' E 004°47'0 0.0
2015-Feb-27 09:31N 52°58' E 004°47'0 0.0
2015-Feb-27 08:28N 52°58' E 004°47'0 0.0
2015-Feb-27 07:31N 52°58' E 004°47'0 0.0
2015-Feb-27 06:31N 52°58' E 004°47'0 0.0
2015-Feb-27 05:31N 52°58' E 004°47'0 0.0
2015-Feb-27 04:28N 52°58' E 004°47'0 0.0
2015-Feb-27 03:04N 52°58' E 004°47'0 0.0
2015-Feb-27 02:31N 52°58' E 004°47'0 0.0
2015-Feb-27 01:31N 52°58' E 004°47'0 0.0
2015-Feb-27 00:31N 52°58' E 004°47'0 0.0
2015-Feb-26 23:31N 52°58' E 004°47'0 0.0
2015-Feb-26 22:31N 52°58' E 004°47'0 0.0
2015-Feb-26 21:25N 52°58' E 004°47'0 0.0
2015-Feb-26 20:31N 52°58' E 004°47'0 0.0
2015-Feb-26 19:31N 52°58' E 004°47'0 0.0
2015-Feb-26 18:31N 52°58' E 004°47'0 0.0
2015-Feb-26 17:31N 52°58' E 004°47'0 0.0
2015-Feb-26 16:31N 52°58' E 004°47'0 0.0
2015-Feb-26 15:28N 52°58' E 004°47'0 0.0
2015-Feb-26 14:31N 52°58' E 004°47'0 0.0
2015-Feb-26 13:31N 52°58' E 004°47'0 0.0
2015-Feb-26 12:28N 52°58' E 004°47'0 0.0
2015-Feb-26 11:31N 52°58' E 004°47'0 0.0
2015-Feb-26 10:31N 52°58' E 004°47'0 0.0
2015-Feb-26 09:22N 52°58' E 004°47'0 0.0
2015-Feb-26 08:28N 52°58' E 004°47'0 0.0
2015-Feb-26 07:31N 52°58' E 004°47'0 0.0
2015-Feb-26 06:22N 52°58' E 004°47'0 0.0
2015-Feb-26 05:28N 52°58' E 004°47'0 0.0
2015-Feb-26 04:25N 52°58' E 004°47'0 0.0
2015-Feb-26 03:28N 52°58' E 004°47'0 0.0
2015-Feb-26 02:28N 52°58' E 004°47'0 0.0
2015-Feb-26 01:31N 52°58' E 004°47'0 0.0
2015-Feb-26 00:22N 52°58' E 004°47'0 0.0
2015-Feb-25 23:31N 52°58' E 004°47'0 0.0
2015-Feb-25 22:25N 52°58' E 004°47'0 0.0
2015-Feb-25 21:31N 52°58' E 004°47'0 0.0
2015-Feb-25 20:25N 52°58' E 004°47'0 0.0
2015-Feb-25 19:22N 52°58' E 004°47'0 0.0
2015-Feb-25 18:13N 52°58' E 004°47'0 0.0
2015-Feb-25 17:31N 52°58' E 004°47'0 0.0
2015-Feb-25 16:25N 52°58' E 004°47'0 0.0
2015-Feb-25 15:31N 52°58' E 004°47'0 0.0
2015-Feb-25 14:28N 52°58' E 004°47'0 0.0
2015-Feb-25 13:25N 52°58' E 004°47'0 0.0
2015-Feb-25 12:31N 52°58' E 004°47'0 0.0
2015-Feb-25 11:28N 52°58' E 004°47'0 0.0
2015-Feb-25 10:31N 52°58' E 004°47'0 0.0
2015-Feb-25 09:31N 52°58' E 004°47'0 0.0
2015-Feb-25 08:31N 52°58' E 004°47'0 0.0
2015-Feb-25 07:31N 52°58' E 004°47'0 0.0
2015-Feb-25 06:31N 52°58' E 004°47'0 0.0
2015-Feb-25 05:31N 52°58' E 004°47'0 0.0
2015-Feb-25 04:28N 52°58' E 004°47'0 0.0
2015-Feb-25 03:31N 52°58' E 004°47'0 0.0
2015-Feb-25 02:28N 52°58' E 004°47'0 0.0
2015-Feb-25 01:25N 52°58' E 004°47'0 0.0
2015-Feb-25 00:22N 52°58' E 004°47'0 0.0
2015-Feb-24 23:31N 52°58' E 004°47'0 0.0
2015-Feb-24 22:28N 52°58' E 004°47'0 0.0
2015-Feb-24 21:28N 52°58' E 004°47'0 0.0
2015-Feb-24 20:28N 52°58' E 004°47'0 0.0
2015-Feb-24 19:25N 52°58' E 004°47'0 0.0
2015-Feb-24 18:31N 52°58' E 004°47'0 0.0
2015-Feb-24 17:31N 52°58' E 004°47'0 0.0
2015-Feb-24 16:31N 52°58' E 004°47'0 0.0
2015-Feb-24 15:31N 52°58' E 004°47'0 0.0
2015-Feb-24 14:31N 52°58' E 004°47'0 0.0
2015-Feb-24 13:31N 52°58' E 004°47'0 0.0
2015-Feb-24 12:31N 52°58' E 004°47'0 0.0
2015-Feb-24 11:22N 52°58' E 004°47'0 0.0
2015-Feb-24 10:28N 52°58' E 004°47'0 0.0
2015-Feb-24 09:31N 52°58' E 004°47'0 0.0
2015-Feb-24 08:31N 52°58' E 004°47'0 0.0
2015-Feb-24 07:31N 52°58' E 004°47'0 0.0
2015-Feb-24 06:31N 52°58' E 004°47'0 0.0
2015-Feb-24 05:31N 52°58' E 004°47'0 0.0
2015-Feb-24 04:31N 52°58' E 004°47'0 0.0
2015-Feb-24 03:31N 52°58' E 004°47'0 0.0
2015-Feb-24 02:31N 52°58' E 004°47'0 0.0
2015-Feb-24 01:16N 52°58' E 004°47'0 0.0
2015-Feb-24 00:28N 52°58' E 004°47'0 0.0
2015-Feb-23 23:31N 52°58' E 004°47'0 0.0
2015-Feb-23 22:31N 52°58' E 004°47'0 0.0
2015-Feb-23 21:31N 52°58' E 004°47'0 0.0
2015-Feb-23 20:28N 52°58' E 004°47'0 0.0
2015-Feb-23 19:31N 52°58' E 004°47'0 0.0
2015-Feb-23 18:28N 52°58' E 004°47'0 0.0
2015-Feb-23 17:25N 52°58' E 004°47'0 0.0
2015-Feb-23 16:25N 52°58' E 004°47'0 0.0
2015-Feb-23 15:28N 52°58' E 004°47'0 0.0
2015-Feb-23 14:31N 52°58' E 004°47'0 0.0
2015-Feb-23 13:31N 52°58' E 004°47'0 0.0
2015-Feb-23 12:22N 52°58' E 004°47'0 0.0
2015-Feb-23 11:28N 52°58' E 004°47'0 0.0
2015-Feb-23 10:31N 52°58' E 004°47'  

Dump ship's entire track history